Time;durP1;ratioP1;P1;durP2;ratioP2;P2;SDS_P1;SDS_P2;PMS_P1;PMS_P2;Temp;Humidity;BMP_temperature;BMP_pressure;BME280_temperature;BME280_humidity;BME280_pressure;Samples;Min_cycle;Max_cycle;Signal;HPM_P1;HPM_P2
2021/07/21 00:03:35;;;;;;;14.53;8.93;;;;;;;19.99;51.98;98396.31;8350401;28;20370;-65
2021/07/21 00:07:38;;;;;;;13.43;8.30;;;;;;;20.07;51.67;98393.94;8350397;28;20244;-65
2021/07/21 00:16:15;;;;;;;10.60;8.53;;;;;;;19.97;52.20;98394.75;8303895;28;20204;-65
2021/07/21 00:20:20;;;;;;;11.37;8.40;;;;;;;19.99;51.62;98395.47;8350352;28;20272;-65
2021/07/21 00:24:22;;;;;;;9.63;7.93;;;;;;;19.94;51.92;98401.09;8349847;28;20492;-65
2021/07/21 00:28:25;;;;;;;9.93;7.90;;;;;;;19.83;52.01;98398.44;8349993;28;20200;-65
2021/07/21 00:32:28;;;;;;;11.57;7.93;;;;;;;19.84;52.04;98398.31;8349872;28;20207;-65
2021/07/21 00:36:32;;;;;;;13.53;8.83;;;;;;;19.78;52.25;98400.56;8349669;28;20212;-65
2021/07/21 00:40:35;;;;;;;11.80;7.50;;;;;;;19.79;51.96;98402.25;8349501;28;20204;-65
2021/07/21 00:44:38;;;;;;;8.40;7.50;;;;;;;19.71;52.39;98397.53;8349405;28;20200;-65
2021/07/21 00:48:40;;;;;;;12.90;8.10;;;;;;;19.67;52.10;98393.47;8349050;28;20200;-65
2021/07/21 00:52:45;;;;;;;9.83;7.93;;;;;;;19.60;52.23;98393.06;8348611;28;20200;-65
2021/07/21 00:56:48;;;;;;;9.27;8.30;;;;;;;19.53;52.61;98395.34;8346210;28;20200;-65
2021/07/21 01:00:53;;;;;;;9.33;7.80;;;;;;;19.47;52.70;98390.50;8348584;28;20192;-65
2021/07/21 01:04:56;;;;;;;9.47;7.57;;;;;;;19.52;52.30;98390.19;8348416;28;20220;-65
2021/07/21 01:09:00;;;;;;;11.97;8.60;;;;;;;19.32;52.69;98386.41;8348050;28;20224;-65
2021/07/21 01:13:07;;;;;;;9.60;7.73;;;;;;;19.45;52.34;98396.84;8349019;28;20197;-65
2021/07/21 01:17:13;;;;;;;10.17;7.70;;;;;;;19.29;52.52;98390.09;8348224;28;20196;-66
2021/07/21 01:21:46;;;;;;;11.50;7.93;;;;;;;19.21;52.93;98384.56;8348119;28;20192;-65
2021/07/21 01:25:56;;;;;;;9.73;8.03;;;;;;;19.07;53.53;98382.94;8346524;28;20420;-65
2021/07/21 01:30:08;;;;;;;10.33;8.07;;;;;;;19.09;53.79;98373.16;8349218;28;20200;-65
2021/07/21 01:34:11;;;;;;;10.73;8.63;;;;;;;19.09;54.10;98378.41;8350607;28;20207;-65
2021/07/21 01:38:20;;;;;;;12.80;8.83;;;;;;;19.03;54.11;98380.66;8354794;28;20204;-65
2021/07/21 01:42:23;;;;;;;11.43;8.50;;;;;;;18.93;54.61;98383.09;8354949;28;20200;-65
2021/07/21 01:46:28;;;;;;;12.03;8.37;;;;;;;18.91;54.84;98377.13;8354642;28;20235;-65
2021/07/21 01:50:31;;;;;;;9.77;7.97;;;;;;;18.79;54.68;98375.34;8354539;28;20200;-65
2021/07/21 01:54:34;;;;;;;8.63;6.97;;;;;;;18.81;54.35;98383.97;8354470;28;20400;-65
2021/07/21 01:58:38;;;;;;;9.90;7.80;;;;;;;18.73;54.62;98381.88;8354391;28;20508;-65
2021/07/21 02:02:45;;;;;;;11.43;7.60;;;;;;;18.78;54.00;98378.94;8354240;28;20378;-65
2021/07/21 02:06:48;;;;;;;12.03;7.67;;;;;;;18.73;54.49;98387.13;8353851;28;20244;-65
2021/07/21 02:10:51;;;;;;;10.17;7.67;;;;;;;18.74;54.07;98387.00;8353899;28;20226;-65
2021/07/21 02:14:54;;;;;;;8.47;7.23;;;;;;;18.77;53.66;98383.31;8353766;28;20488;-65
2021/07/21 02:19:01;;;;;;;11.23;7.53;;;;;;;18.68;53.97;98390.06;8353577;28;20200;-65
2021/07/21 02:23:04;;;;;;;8.53;7.50;;;;;;;18.68;53.82;98390.06;8353508;28;20200;-65
2021/07/21 02:27:09;;;;;;;11.47;7.73;;;;;;;18.61;53.88;98395.88;8353415;28;20527;-65
2021/07/21 02:31:16;;;;;;;11.33;7.70;;;;;;;18.42;54.44;98394.53;8353316;28;20212;-65
2021/07/21 02:35:21;;;;;;;8.63;7.50;;;;;;;18.31;54.04;98394.44;8353328;28;20200;-65
2021/07/21 02:39:24;;;;;;;10.60;7.73;;;;;;;18.39;54.32;98393.91;8353066;28;20200;-65
2021/07/21 02:43:27;;;;;;;10.30;7.90;;;;;;;18.49;53.39;98392.31;8352856;28;20376;-65
2021/07/21 02:47:29;;;;;;;12.90;7.33;;;;;;;18.28;53.56;98399.91;8352701;28;20235;-65
2021/07/21 02:51:36;;;;;;;10.87;7.80;;;;;;;18.25;53.88;98400.09;8352693;28;20200;-65
2021/07/21 02:55:43;;;;;;;12.53;7.93;;;;;;;18.18;53.81;98394.44;8352633;28;20209;-65
2021/07/21 02:59:47;;;;;;;11.23;7.47;;;;;;;18.29;53.67;98393.69;8352491;28;20519;-65
2021/07/21 03:03:50;;;;;;;12.67;7.20;;;;;;;18.33;53.28;98385.53;8352313;28;20207;-65
2021/07/21 03:07:57;;;;;;;10.17;7.33;;;;;;;18.35;53.19;98393.25;8352068;28;20251;-65
2021/07/21 03:12:01;;;;;;;9.23;7.77;;;;;;;18.22;53.43;98395.06;8352069;28;20207;-65
2021/07/21 03:16:04;;;;;;;12.90;7.60;;;;;;;18.31;53.32;98392.63;8351908;28;20415;-65
2021/07/21 03:20:08;;;;;;;11.80;7.37;;;;;;;18.16;53.65;98389.31;8352056;28;20488;-65
2021/07/21 03:24:13;;;;;;;9.93;7.10;;;;;;;18.13;53.64;98393.94;8351736;28;20491;-65
2021/07/21 03:28:16;;;;;;;10.40;7.73;;;;;;;18.12;54.26;98403.53;8351421;28;20235;-66
2021/07/21 03:32:19;;;;;;;11.97;7.67;;;;;;;18.03;54.11;98398.09;8351257;28;20205;-65
2021/07/21 03:36:22;;;;;;;11.20;7.20;;;;;;;17.98;54.36;98395.81;8351193;28;20208;-65
2021/07/21 03:40:28;;;;;;;8.70;7.70;;;;;;;17.93;54.36;98398.75;8351006;28;20201;-65
2021/07/21 03:44:31;;;;;;;9.10;7.90;;;;;;;17.89;54.20;98396.41;8351328;28;20200;-65
2021/07/21 03:48:33;;;;;;;11.20;7.37;;;;;;;17.82;54.26;98405.59;8351022;28;20235;-65
2021/07/21 03:52:40;;;;;;;9.70;7.47;;;;;;;17.87;54.35;98400.94;8350754;28;20267;-65
2021/07/21 03:56:45;;;;;;;9.40;7.43;;;;;;;17.80;54.29;98403.09;8350323;28;20204;-65
2021/07/21 04:00:48;;;;;;;10.73;7.50;;;;;;;17.81;54.37;98410.00;8350871;28;20204;-65
2021/07/21 04:04:51;;;;;;;11.27;7.20;;;;;;;17.89;54.31;98418.22;8350557;28;20499;-65
2021/07/21 04:08:58;;;;;;;12.60;8.40;;;;;;;17.89;54.10;98414.75;8349959;28;20259;-65
2021/07/21 04:13:03;;;;;;;12.83;7.47;;;;;;;17.79;54.36;98423.19;8350251;28;20209;-65
2021/07/21 04:17:06;;;;;;;10.17;7.67;;;;;;;17.89;54.07;98423.44;8350337;28;20200;-65
2021/07/21 04:21:10;;;;;;;12.80;7.97;;;;;;;17.87;54.21;98433.19;8350194;28;20223;-65
2021/07/21 04:25:14;;;;;;;9.43;7.40;;;;;;;17.96;54.05;98426.50;8349862;28;20207;-65
2021/07/21 04:29:24;;;;;;;13.50;7.50;;;;;;;17.96;54.23;98431.75;8349698;28;20232;-65
2021/07/21 04:33:27;;;;;;;11.13;7.80;;;;;;;17.83;54.55;98436.09;8349948;28;20200;-65
2021/07/21 04:37:30;;;;;;;14.17;7.33;;;;;;;18.00;54.24;98442.88;8349890;28;20204;-65
2021/07/21 04:41:34;;;;;;;9.00;7.13;;;;;;;18.12;53.83;98442.84;8349815;28;20200;-65
2021/07/21 04:45:41;;;;;;;10.00;7.27;;;;;;;18.20;53.70;98449.38;8349621;28;20212;-65
2021/07/21 04:49:46;;;;;;;14.43;7.60;;;;;;;18.12;53.88;98455.13;8349506;28;20227;-65
2021/07/21 04:53:53;;;;;;;10.30;7.30;;;;;;;18.19;54.10;98450.34;8349441;28;20197;-65
2021/07/21 04:57:56;;;;;;;11.70;7.97;;;;;;;18.14;54.02;98455.88;8349296;28;20398;-65
2021/07/21 05:02:01;;;;;;;10.30;7.93;;;;;;;18.23;54.16;98454.41;8348713;28;20201;-65
2021/07/21 05:06:04;;;;;;;16.63;8.10;;;;;;;18.31;54.50;98466.03;8348788;28;20305;-65
2021/07/21 05:10:07;;;;;;;11.87;7.37;;;;;;;18.33;54.46;98452.84;8378917;28;20219;-66
2021/07/21 05:14:10;;;;;;;11.60;7.43;;;;;;;18.28;54.82;98466.28;8388477;28;20203;-65
2021/07/21 05:18:15;;;;;;;10.97;7.30;;;;;;;18.48;54.69;98466.69;8387550;28;20204;-65
2021/07/21 05:22:17;;;;;;;12.23;8.17;;;;;;;18.51;54.94;98479.59;8388385;28;20207;-65
2021/07/21 05:26:20;;;;;;;9.50;7.23;;;;;;;18.72;54.31;98472.84;8385235;28;20199;-66
2021/07/21 05:30:23;;;;;;;8.87;7.27;;;;;;;18.72;54.66;98470.22;8387242;28;20196;-66
2021/07/21 05:34:28;;;;;;;8.87;7.00;;;;;;;18.85;54.18;98485.13;8387732;28;20203;-65
2021/07/21 05:38:30;;;;;;;13.07;7.33;;;;;;;18.76;54.92;98481.34;8387682;28;20218;-67
2021/07/21 05:42:34;;;;;;;10.87;7.20;;;;;;;18.81;54.06;98486.31;8387924;28;20200;-65
2021/07/21 05:46:36;;;;;;;8.20;7.03;;;;;;;18.97;53.86;98486.91;8361403;28;20527;-65
2021/07/21 05:50:40;;;;;;;13.10;7.33;;;;;;;18.97;53.34;98484.28;8354457;28;20216;-66
2021/07/21 05:54:43;;;;;;;12.53;7.40;;;;;;;19.12;53.06;98474.50;8354451;28;20200;-66
2021/07/21 05:58:46;;;;;;;13.23;8.07;;;;;;;19.27;53.08;98483.06;8354192;28;20204;-65
2021/07/21 06:02:49;;;;;;;11.20;7.67;;;;;;;19.33;52.86;98480.00;8354263;28;20239;-66
2021/07/21 06:06:54;;;;;;;11.40;7.83;;;;;;;19.29;52.63;98479.38;8354033;28;20306;-65
2021/07/21 06:10:57;;;;;;;14.23;7.60;;;;;;;19.53;51.86;98486.41;8353744;28;20220;-66
2021/07/21 06:15:00;;;;;;;13.67;7.23;;;;;;;19.33;52.50;98493.94;8353837;28;20209;-66
2021/07/21 06:19:03;;;;;;;14.20;7.30;;;;;;;19.57;52.19;98498.38;8353558;28;20499;-66
2021/07/21 06:23:07;;;;;;;11.83;7.70;;;;;;;19.86;51.90;98501.53;8353614;28;20211;-65
2021/07/21 06:27:10;;;;;;;15.30;7.43;;;;;;;19.98;51.57;98502.41;8353339;28;20229;-66
2021/07/21 06:31:14;;;;;;;10.27;7.37;;;;;;;20.09;51.49;98504.25;8353582;28;20401;-66
2021/07/21 06:35:17;;;;;;;10.33;7.50;;;;;;;20.33;50.74;98508.59;8353145;28;20270;-66
2021/07/21 06:39:21;;;;;;;13.23;7.03;;;;;;;20.61;51.11;98510.00;8353007;28;20205;-66
2021/07/21 06:43:24;;;;;;;13.93;7.50;;;;;;;20.69;50.26;98515.50;8352868;28;20208;-66
2021/07/21 06:47:26;;;;;;;11.70;7.73;;;;;;;20.78;49.81;98517.41;8352792;28;20228;-66
2021/07/21 06:51:31;;;;;;;10.03;7.30;;;;;;;20.92;49.59;98526.03;8352588;28;20208;-66
2021/07/21 06:55:35;;;;;;;10.13;7.80;;;;;;;20.97;48.79;98524.72;8352496;28;20200;-66
2021/07/21 06:59:39;;;;;;;13.63;7.80;;;;;;;21.50;49.02;98524.09;8352738;28;20212;-67
2021/07/21 07:03:42;;;;;;;13.63;7.13;;;;;;;21.75;48.48;98527.38;8351973;28;20208;-67
2021/07/21 07:07:45;;;;;;;9.73;7.13;;;;;;;21.81;47.55;98527.69;8351950;28;20248;-67
2021/07/21 07:11:50;;;;;;;11.90;7.10;;;;;;;22.23;46.03;98540.09;8352214;28;20533;-67
2021/07/21 07:15:55;;;;;;;13.73;7.07;;;;;;;22.58;45.93;98536.31;8351863;28;20591;-67
2021/07/21 07:19:58;;;;;;;12.40;6.93;;;;;;;22.61;45.92;98544.00;8351912;28;20215;-67
2021/07/21 07:24:00;;;;;;;10.80;7.07;;;;;;;22.86;45.26;98540.09;8351772;28;20208;-67
2021/07/21 07:28:05;;;;;;;9.27;6.60;;;;;;;23.00;45.25;98541.56;8351186;28;20227;-67
2021/07/21 07:32:08;;;;;;;12.13;7.43;;;;;;;23.13;44.12;98531.63;8350594;28;20212;-67
2021/07/21 07:36:11;;;;;;;11.07;7.60;;;;;;;23.31;42.83;98533.63;8351575;28;20202;-67
2021/07/21 07:40:15;;;;;;;12.60;7.33;;;;;;;23.71;42.75;98532.72;8350081;28;20376;-67
2021/07/21 07:44:19;;;;;;;10.57;7.10;;;;;;;23.79;42.31;98524.97;8348002;28;20208;-67
2021/07/21 07:48:22;;;;;;;10.77;7.00;;;;;;;24.43;41.60;98526.19;8349978;28;20227;-67
2021/07/21 07:52:25;;;;;;;11.23;7.20;;;;;;;24.48;40.64;98525.75;8350467;28;20223;-67
2021/07/21 07:56:27;;;;;;;11.00;7.40;;;;;;;24.46;40.59;98525.88;8350028;28;20204;-67
2021/07/21 08:00:32;;;;;;;10.53;7.33;;;;;;;24.68;40.94;98523.94;8378959;28;20215;-66
2021/07/21 08:04:35;;;;;;;11.03;8.47;;;;;;;24.78;39.63;98528.19;8383624;28;20213;-66
2021/07/21 08:08:38;;;;;;;11.37;7.73;;;;;;;24.84;39.84;98526.78;8383115;28;20240;-66
2021/07/21 08:12:43;;;;;;;12.83;8.03;;;;;;;25.21;39.13;98517.13;8381949;28;20200;-66
2021/07/21 08:16:47;;;;;;;11.97;8.40;;;;;;;25.31;37.65;98525.91;8350195;28;20201;-65
2021/07/21 08:20:50;;;;;;;9.87;7.10;;;;;;;25.61;37.37;98522.09;8350135;28;20397;-65
2021/07/21 08:24:53;;;;;;;11.07;6.83;;;;;;;26.04;37.77;98525.00;8349975;28;20207;-66
2021/07/21 08:28:55;;;;;;;10.57;7.30;;;;;;;25.80;37.25;98521.13;8349912;28;20224;-65
2021/07/21 08:33:00;;;;;;;10.33;6.90;;;;;;;26.41;36.92;98526.63;8349788;28;20204;-65
2021/07/21 08:37:03;;;;;;;11.37;7.53;;;;;;;26.11;37.46;98526.06;8349752;28;20207;-65
2021/07/21 08:41:06;;;;;;;9.87;7.40;;;;;;;26.38;36.83;98526.94;8349575;28;20215;-65
2021/07/21 08:45:10;;;;;;;9.43;6.80;;;;;;;26.82;36.86;98525.06;8358854;28;20219;-65
2021/07/21 08:49:14;;;;;;;13.30;7.57;;;;;;;26.81;36.03;98520.75;8360530;28;20234;-65
2021/07/21 08:53:18;;;;;;;10.50;6.67;;;;;;;27.07;36.63;98518.06;8360771;28;20208;-65
2021/07/21 08:57:22;;;;;;;11.30;7.20;;;;;;;27.28;35.86;98515.03;8360430;28;20211;-65
2021/07/21 09:01:25;;;;;;;9.30;6.70;;;;;;;27.41;35.22;98513.72;8385019;28;20376;-65
2021/07/21 09:05:29;;;;;;;15.87;7.47;;;;;;;27.01;34.98;98516.03;8393206;28;20200;-65
2021/07/21 09:09:32;;;;;;;17.53;7.93;;;;;;;27.16;34.61;98521.56;8392809;28;20242;-66
2021/07/21 09:13:36;;;;;;;45.27;8.87;;;;;;;27.45;34.80;98515.06;8393219;28;20202;-73
2021/07/21 09:17:58;;;;;;;10.23;6.90;;;;;;;27.62;34.16;98522.06;8393363;28;20227;-76
2021/07/21 09:22:14;;;;;;;37.57;8.30;;;;;;;27.78;33.78;98515.97;8393401;28;20218;-73
2021/07/21 09:26:20;;;;;;;10.60;7.13;;;;;;;27.95;32.75;98510.66;8393443;28;20205;-73
2021/07/21 09:30:24;;;;;;;8.63;7.10;;;;;;;28.03;33.16;98521.34;8393107;28;20336;-73
2021/07/21 09:34:28;;;;;;;10.03;6.60;;;;;;;28.32;33.18;98518.16;8393278;28;20221;-73
2021/07/21 09:38:33;;;;;;;9.77;7.07;;;;;;;28.23;32.78;98519.16;8393013;28;20210;-72
2021/07/21 09:42:37;;;;;;;13.23;7.37;;;;;;;28.44;32.21;98514.16;8393164;28;20202;-73
2021/07/21 09:46:40;;;;;;;9.63;7.10;;;;;;;28.61;32.25;98501.63;8392852;28;20205;-73
2021/07/21 09:50:46;;;;;;;17.07;6.83;;;;;;;28.56;32.67;98512.00;8392491;28;20253;-73
2021/07/21 09:55:08;;;;;;;9.03;6.70;;;;;;;28.65;30.30;98508.31;8390113;28;20213;-73
2021/07/21 09:59:21;;;;;;;12.03;7.70;;;;;;;27.89;32.63;98506.84;8387528;28;20206;-72
2021/07/21 10:03:25;;;;;;;8.80;6.70;;;;;;;28.37;33.38;98506.97;8387496;28;20212;-73
2021/07/21 10:07:48;;;;;;;9.30;7.40;;;;;;;28.81;31.79;98510.09;8387071;28;20303;-72
2021/07/21 10:11:53;;;;;;;8.70;6.70;;;;;;;28.93;32.38;98507.88;8387264;28;20498;-73
2021/07/21 10:15:56;;;;;;;13.90;6.87;;;;;;;29.22;31.32;98507.28;8386971;28;20260;-71
2021/07/21 10:19:58;;;;;;;8.10;6.37;;;;;;;29.42;31.75;98513.03;8387029;28;20215;-72
2021/07/21 10:24:01;;;;;;;8.00;6.57;;;;;;;29.47;30.77;98509.00;8386819;28;20203;-71
2021/07/21 10:28:07;;;;;;;13.43;7.00;;;;;;;29.65;30.00;98503.41;8386364;28;20203;-71
2021/07/21 10:32:11;;;;;;;9.03;6.20;;;;;;;29.70;29.95;98512.53;8386331;28;20233;-71
2021/07/21 10:36:14;;;;;;;11.67;6.50;;;;;;;29.91;29.06;98508.38;8386075;28;20225;-72
2021/07/21 10:40:19;;;;;;;11.17;6.87;;;;;;;28.84;31.82;98500.91;8386062;28;20223;-72
2021/07/21 10:44:23;;;;;;;8.67;6.67;;;;;;;28.06;31.56;98511.19;8386527;28;20202;-72
2021/07/21 10:48:42;;;;;;;7.83;6.13;;;;;;;29.12;29.79;98503.16;8386004;28;20231;-71
2021/07/21 10:52:53;;;;;;;12.50;6.80;;;;;;;28.78;31.13;98504.28;8385813;28;20406;-72
2021/07/21 11:01:29;;;;;;;9.00;6.30;;;;;;;29.94;29.53;98486.69;8385771;28;20389;-72
2021/07/21 11:05:34;;;;;;;6.93;6.20;;;;;;;29.90;29.14;98490.72;8384636;28;20250;-71
2021/07/21 11:09:42;;;;;;;9.87;6.67;;;;;;;29.48;28.31;98487.47;8384524;28;20428;-73
2021/07/21 11:13:44;;;;;;;7.77;6.13;;;;;;;29.84;29.49;98483.44;8385253;28;20385;-71
2021/07/21 11:18:27;;;;;;;8.17;6.47;;;;;;;29.84;28.24;98483.44;8385190;28;20497;-72
2021/07/21 11:22:30;;;;;;;9.77;6.80;;;;;;;29.81;27.20;98477.41;8384465;28;20472;-74
2021/07/21 11:26:43;;;;;;;12.13;5.87;;;;;;;29.89;28.48;98475.69;8384520;28;20206;-73
2021/07/21 11:30:49;;;;;;;7.53;5.90;;;;;;;30.11;26.35;98472.19;8384546;28;20253;-72
2021/07/21 11:34:53;;;;;;;8.80;5.67;;;;;;;30.19;26.76;98471.28;8384501;28;20248;-73
2021/07/21 11:38:56;;;;;;;9.57;6.53;;;;;;;30.00;28.02;98473.44;8384239;28;20214;-73
2021/07/21 11:43:31;;;;;;;7.83;5.93;;;;;;;29.87;27.34;98467.88;8380350;28;20195;-71
2021/07/21 11:47:35;;;;;;;6.97;5.40;;;;;;;30.28;26.10;98472.84;8351151;28;20203;-73
2021/07/21 11:51:40;;;;;;;10.47;6.07;;;;;;;29.82;25.63;98471.09;8350886;28;20306;-72
2021/07/21 11:55:42;;;;;;;9.77;5.83;;;;;;;30.35;26.48;98473.00;8350837;28;20205;-70
2021/07/21 11:59:46;;;;;;;10.57;6.20;;;;;;;30.38;27.44;98472.63;8350878;28;20502;-72
2021/07/21 12:03:49;;;;;;;8.33;5.57;;;;;;;30.38;27.21;98462.75;8350527;28;20226;-72
2021/07/21 12:07:54;;;;;;;8.90;5.40;;;;;;;30.17;26.43;98463.44;8350359;28;20461;-73
2021/07/21 12:11:58;;;;;;;8.57;5.90;;;;;;;30.14;26.39;98461.13;8350196;28;20224;-73
2021/07/21 12:16:01;;;;;;;10.33;5.90;;;;;;;30.14;26.43;98461.13;8349636;28;20195;-71
2021/07/21 12:20:07;;;;;;;6.67;5.20;;;;;;;30.47;26.76;98455.50;8349482;28;20222;-72
2021/07/21 12:24:14;;;;;;;7.57;6.20;;;;;;;30.62;28.20;98460.84;8350086;28;20205;-73
2021/07/21 12:28:16;;;;;;;6.17;5.00;;;;;;;30.77;26.97;98452.81;8349640;28;20195;-72
2021/07/21 12:32:21;;;;;;;7.20;5.20;;;;;;;30.77;26.81;98453.66;8348894;28;20216;-72
2021/07/21 12:36:24;;;;;;;12.33;6.20;;;;;;;29.93;25.33;98447.63;8348970;28;20214;-73
2021/07/21 12:40:30;;;;;;;6.53;5.30;;;;;;;30.42;28.19;98454.38;8348990;28;20492;-68
2021/07/21 12:44:38;;;;;;;7.70;5.17;;;;;;;30.20;26.70;98447.06;8346629;28;20210;-68
2021/07/21 12:48:41;;;;;;;6.00;5.43;;;;;;;30.54;27.46;98445.75;8348864;28;20197;-68
2021/07/21 12:52:46;;;;;;;5.93;5.33;;;;;;;30.43;28.09;98456.06;8348760;28;20201;-68
2021/07/21 12:56:51;;;;;;;6.80;5.40;;;;;;;30.35;27.88;98446.28;8350251;28;20200;-68
2021/07/21 13:00:56;;;;;;;7.13;5.53;;;;;;;30.34;26.68;98445.44;8381492;28;20201;-68
2021/07/21 13:04:59;;;;;;;9.33;5.80;;;;;;;29.92;27.31;98444.13;8382089;28;20207;-69
2021/07/21 13:09:05;;;;;;;11.40;5.43;;;;;;;30.40;28.14;98454.56;8382154;28;20242;-68
2021/07/21 13:13:21;;;;;;;6.47;5.50;;;;;;;30.48;27.52;98440.28;8382280;28;20202;-68
2021/07/21 13:17:25;;;;;;;7.43;5.00;;;;;;;30.54;28.08;98443.06;8382320;28;20199;-68
2021/07/21 13:21:29;;;;;;;7.30;5.23;;;;;;;30.32;27.88;98435.97;8382173;28;20206;-68
2021/07/21 13:25:32;;;;;;;5.73;5.13;;;;;;;30.30;26.03;98438.78;8382054;28;20210;-68
2021/07/21 13:29:38;;;;;;;6.60;5.10;;;;;;;30.30;27.00;98448.63;8382821;28;20445;-69
2021/07/21 13:33:41;;;;;;;7.13;5.10;;;;;;;30.36;26.24;98439.91;8388326;28;20209;-68
2021/07/21 13:37:44;;;;;;;7.03;4.90;;;;;;;30.08;25.23;98439.66;8388165;28;20199;-68
2021/07/21 13:41:51;;;;;;;22.83;5.60;;;;;;;30.12;27.52;98443.63;8388016;28;20204;-68
2021/07/21 13:45:57;;;;;;;6.43;5.30;;;;;;;30.29;28.23;98442.47;8387957;28;20206;-69
2021/07/21 13:50:05;;;;;;;6.63;4.70;;;;;;;30.23;26.69;98437.84;8387816;28;20228;-68
2021/07/21 13:54:18;;;;;;;9.10;4.97;;;;;;;30.27;26.99;98436.47;8387550;28;20207;-69
2021/07/21 13:58:21;;;;;;;11.70;5.77;;;;;;;29.93;26.52;98434.28;8351279;28;20211;-66
2021/07/21 14:02:29;;;;;;;7.67;4.97;;;;;;;29.92;26.22;98424.63;8353486;28;20405;-66
2021/07/21 14:06:33;;;;;;;7.87;5.10;;;;;;;29.74;26.74;98425.78;8353293;28;20231;-66
2021/07/21 14:10:36;;;;;;;7.60;5.00;;;;;;;30.01;27.09;98424.38;8353695;28;20231;-65
2021/07/21 14:14:39;;;;;;;7.03;5.10;;;;;;;29.83;25.80;98426.53;8353939;28;20204;-65
2021/07/21 14:18:43;;;;;;;10.27;5.30;;;;;;;29.94;27.56;98422.59;8353769;28;20210;-64
2021/07/21 14:22:46;;;;;;;7.17;4.93;;;;;;;29.96;26.38;98418.75;8353721;28;20233;-65
2021/07/21 14:26:49;;;;;;;5.37;4.83;;;;;;;29.86;26.23;98420.03;8353624;28;20211;-65
2021/07/21 14:30:52;;;;;;;6.40;4.87;;;;;;;29.87;26.80;98413.66;8353357;28;20232;-64
2021/07/21 14:34:56;;;;;;;7.63;4.67;;;;;;;29.73;27.20;98405.44;8353161;28;20204;-64
2021/07/21 14:38:59;;;;;;;5.43;4.77;;;;;;;29.65;27.23;98408.16;8366387;28;20199;-64
2021/07/21 14:43:02;;;;;;;6.50;5.30;;;;;;;29.70;27.44;98400.44;8385840;28;20210;-65
2021/07/21 14:47:05;;;;;;;8.70;5.30;;;;;;;29.63;28.17;98400.31;8362174;28;20199;-65
2021/07/21 14:51:09;;;;;;;9.87;5.37;;;;;;;29.64;26.69;98390.47;8352701;28;20224;-65
2021/07/21 14:55:12;;;;;;;9.10;5.33;;;;;;;29.65;27.42;98392.13;8352658;28;20214;-65
2021/07/21 14:59:15;;;;;;;38.97;6.10;;;;;;;29.11;26.27;98394.81;8352598;28;20521;-65
2021/07/21 15:03:18;;;;;;;8.60;5.40;;;;;;;28.93;26.75;98390.59;8352353;28;20209;-66
2021/07/21 15:07:22;;;;;;;6.13;5.43;;;;;;;28.93;28.85;98389.78;8351309;28;20235;-68
2021/07/21 15:11:26;;;;;;;11.23;5.80;;;;;;;29.19;28.92;98389.50;8353651;28;20222;-66
2021/07/21 15:15:29;;;;;;;7.83;5.13;;;;;;;29.04;29.10;98392.88;8351972;28;20201;-66
2021/07/21 15:19:34;;;;;;;6.63;5.90;;;;;;;29.08;29.47;98392.53;8351906;28;20269;-66
2021/07/21 15:23:39;;;;;;;5.77;4.60;;;;;;;29.06;28.00;98379.38;8351629;28;20214;-66
2021/07/21 15:27:41;;;;;;;6.47;5.37;;;;;;;28.89;28.95;98388.47;8351216;28;20198;-65
2021/07/21 15:31:44;;;;;;;10.93;5.20;;;;;;;28.38;28.29;98383.47;8351415;28;20237;-66
2021/07/21 15:35:47;;;;;;;9.17;6.10;;;;;;;28.59;29.80;98390.94;8350594;28;20210;-66
2021/07/21 15:39:51;;;;;;;9.93;5.53;;;;;;;28.60;29.77;98377.44;8350245;28;20201;-66
2021/07/21 15:43:54;;;;;;;12.87;6.43;;;;;;;28.32;30.05;98382.34;8348395;28;20206;-66
2021/07/21 15:47:57;;;;;;;10.20;6.57;;;;;;;28.24;30.16;98388.50;8350795;28;20209;-66
2021/07/21 15:52:00;;;;;;;8.67;5.73;;;;;;;28.18;30.38;98377.69;8349870;28;20242;-65
2021/07/21 15:56:05;;;;;;;8.40;5.80;;;;;;;28.13;29.51;98383.56;8350656;28;20208;-65
2021/07/21 16:00:11;;;;;;;9.20;5.50;;;;;;;28.03;29.67;98367.78;8350695;28;20205;-66
2021/07/21 16:04:13;;;;;;;9.67;5.33;;;;;;;27.99;30.86;98373.63;8350382;28;20201;-65
2021/07/21 16:08:16;;;;;;;9.60;5.27;;;;;;;28.13;30.96;98378.22;8350201;28;20247;-65
2021/07/21 16:12:20;;;;;;;8.03;5.87;;;;;;;27.93;31.22;98374.25;8350269;28;20232;-65
2021/07/21 16:16:23;;;;;;;10.60;5.57;;;;;;;28.03;31.25;98374.94;8350222;28;20201;-65
2021/07/21 16:20:26;;;;;;;11.40;5.90;;;;;;;27.85;30.45;98375.94;8349670;28;20208;-65
2021/07/21 16:24:29;;;;;;;9.93;5.70;;;;;;;27.60;29.58;98360.97;8350003;28;20202;-66
2021/07/21 16:28:33;;;;;;;9.37;5.77;;;;;;;27.76;30.26;98358.31;8349840;28;20411;-66
2021/07/21 16:32:36;;;;;;;10.23;5.63;;;;;;;27.67;30.60;98364.63;8349762;28;20232;-66
2021/07/21 16:36:39;;;;;;;6.80;5.53;;;;;;;27.68;30.57;98367.13;8349795;28;20224;-66
2021/07/21 16:40:42;;;;;;;7.47;5.50;;;;;;;27.40;31.30;98365.81;8349706;28;20207;-65
2021/07/21 16:44:47;;;;;;;7.37;5.20;;;;;;;27.43;30.75;98371.59;8349573;28;20382;-65
2021/07/21 16:48:49;;;;;;;9.27;5.43;;;;;;;27.40;31.67;98377.28;8349313;28;20201;-66
2021/07/21 16:52:53;;;;;;;8.73;5.80;;;;;;;27.35;31.15;98373.44;8349075;28;20241;-65
2021/07/21 16:56:55;;;;;;;8.93;5.70;;;;;;;27.26;31.66;98380.56;8348721;28;20205;-66
2021/07/21 17:01:00;;;;;;;6.93;5.67;;;;;;;27.07;30.81;98379.84;8349229;28;20216;-68
2021/07/21 17:05:03;;;;;;;10.53;6.13;;;;;;;26.92;32.16;98374.34;8352663;28;20200;-67
2021/07/21 17:09:06;;;;;;;9.70;5.83;;;;;;;26.85;33.03;98381.28;8355763;28;20260;-69
2021/07/21 17:13:09;;;;;;;6.20;5.17;;;;;;;26.78;31.89;98387.41;8355692;28;20541;-68
2021/07/21 17:17:13;;;;;;;10.33;5.77;;;;;;;26.62;33.19;98382.88;8352107;28;20206;-68
2021/07/21 17:21:17;;;;;;;11.80;5.87;;;;;;;26.51;33.88;98384.78;8354943;28;20202;-67
2021/07/21 17:25:20;;;;;;;7.20;5.27;;;;;;;26.52;33.51;98381.16;8354613;28;20210;-67
2021/07/21 17:29:23;;;;;;;7.03;5.33;;;;;;;26.45;33.88;98385.44;8355245;28;20202;-66
2021/07/21 17:33:27;;;;;;;7.73;5.60;;;;;;;26.28;35.03;98392.47;8354944;28;20414;-66
2021/07/21 17:37:32;;;;;;;8.30;5.37;;;;;;;26.14;35.34;98398.34;8355255;28;20519;-66
2021/07/21 17:41:35;;;;;;;9.23;5.40;;;;;;;26.01;35.50;98396.13;8355157;28;20508;-67
2021/07/21 17:45:38;;;;;;;7.57;5.63;;;;;;;26.00;35.30;98396.28;8354852;28;20210;-66
2021/07/21 17:49:44;;;;;;;6.73;5.13;;;;;;;25.99;35.91;98400.78;8354907;28;20384;-66
2021/07/21 17:53:47;;;;;;;7.77;5.50;;;;;;;25.99;36.10;98402.56;8353886;28;20225;-66
2021/07/21 17:57:50;;;;;;;12.37;6.00;;;;;;;25.89;35.83;98399.97;8353468;28;20386;-66
2021/07/21 18:01:53;;;;;;;9.30;5.70;;;;;;;25.86;36.16;98402.97;8354231;28;20201;-65
2021/07/21 18:05:57;;;;;;;30.83;6.17;;;;;;;25.86;36.62;98393.19;8354115;28;20262;-67
2021/07/21 18:10:00;;;;;;;11.87;5.00;;;;;;;25.83;36.79;98396.13;8353966;28;20222;-65
2021/07/21 18:14:04;;;;;;;6.60;5.27;;;;;;;25.79;36.59;98392.13;8353794;28;20234;-65
2021/07/21 18:18:07;;;;;;;9.03;5.30;;;;;;;25.69;37.52;98391.41;8353080;28;20232;-65
2021/07/21 18:22:11;;;;;;;8.53;5.10;;;;;;;25.61;37.00;98388.66;8353938;28;20213;-65
2021/07/21 18:26:15;;;;;;;10.90;5.13;;;;;;;25.59;37.57;98398.59;8353463;28;20255;-65
2021/07/21 18:30:21;;;;;;;6.40;4.90;;;;;;;25.48;37.54;98392.53;8353491;28;20472;-65
2021/07/21 18:34:24;;;;;;;7.33;5.30;;;;;;;25.45;37.29;98392.00;8353279;28;20294;-65
2021/07/21 18:38:28;;;;;;;8.43;4.83;;;;;;;25.36;37.94;98394.59;8353264;28;20200;-65
2021/07/21 18:42:31;;;;;;;6.93;5.13;;;;;;;25.32;37.27;98395.03;8355822;28;20273;-65
2021/07/21 18:46:34;;;;;;;7.77;5.23;;;;;;;25.21;38.18;98392.56;8353117;28;20209;-65
2021/07/21 18:50:37;;;;;;;7.67;4.60;;;;;;;25.11;38.01;98398.81;8352900;28;20200;-66
2021/07/21 18:54:41;;;;;;;9.87;5.43;;;;;;;25.11;38.79;98398.81;8352730;28;20550;-66
2021/07/21 18:58:44;;;;;;;6.47;5.00;;;;;;;25.03;38.42;98401.34;8352692;28;20516;-65
2021/07/21 19:02:47;;;;;;;8.23;5.07;;;;;;;25.01;39.20;98397.19;8352568;28;20307;-67
2021/07/21 19:06:50;;;;;;;8.67;4.73;;;;;;;24.90;39.00;98407.03;8351979;28;20535;-66
2021/07/21 19:10:54;;;;;;;7.37;5.13;;;;;;;24.74;39.13;98404.16;8351450;28;20219;-66
2021/07/21 19:14:57;;;;;;;9.97;5.30;;;;;;;24.67;39.09;98413.69;8351159;28;20220;-66